sensor_id;sensor_type;location;lat;lon;timestamp;P1;durP1;ratioP1;P2;durP2;ratioP2
10491;SDS011;5293;51.464;-2.566;2023-01-15T00:01:35;8.50;;;1.60;;
10491;SDS011;5293;51.464;-2.566;2023-01-15T00:04:02;2.53;;;1.30;;
10491;SDS011;5293;51.464;-2.566;2023-01-15T00:06:29;6.70;;;1.63;;
10491;SDS011;5293;51.464;-2.566;2023-01-15T00:08:57;6.33;;;1.30;;
10491;SDS011;5293;51.464;-2.566;2023-01-15T00:11:22;4.10;;;1.10;;
10491;SDS011;5293;51.464;-2.566;2023-01-15T00:13:49;4.67;;;1.10;;
10491;SDS011;5293;51.464;-2.566;2023-01-15T00:16:16;4.03;;;1.20;;
10491;SDS011;5293;51.464;-2.566;2023-01-15T00:18:50;7.10;;;1.93;;
10491;SDS011;5293;51.464;-2.566;2023-01-15T00:21:17;4.47;;;1.50;;
10491;SDS011;5293;51.464;-2.566;2023-01-15T00:23:44;4.33;;;1.20;;
10491;SDS011;5293;51.464;-2.566;2023-01-15T00:26:29;3.37;;;1.13;;
10491;SDS011;5293;51.464;-2.566;2023-01-15T00:29:15;6.60;;;1.30;;
10491;SDS011;5293;51.464;-2.566;2023-01-15T00:31:41;7.87;;;1.33;;
10491;SDS011;5293;51.464;-2.566;2023-01-15T00:34:08;5.90;;;1.40;;
10491;SDS011;5293;51.464;-2.566;2023-01-15T00:36:33;8.93;;;1.60;;
10491;SDS011;5293;51.464;-2.566;2023-01-15T00:39:01;4.73;;;1.53;;
10491;SDS011;5293;51.464;-2.566;2023-01-15T00:41:28;6.33;;;1.53;;
10491;SDS011;5293;51.464;-2.566;2023-01-15T00:43:54;6.40;;;1.77;;
10491;SDS011;5293;51.464;-2.566;2023-01-15T00:46:20;3.17;;;1.60;;
10491;SDS011;5293;51.464;-2.566;2023-01-15T00:48:46;5.27;;;1.60;;
10491;SDS011;5293;51.464;-2.566;2023-01-15T00:51:12;5.07;;;1.50;;
10491;SDS011;5293;51.464;-2.566;2023-01-15T00:53:38;3.37;;;1.30;;
10491;SDS011;5293;51.464;-2.566;2023-01-15T00:56:03;5.67;;;1.30;;
10491;SDS011;5293;51.464;-2.566;2023-01-15T00:58:29;4.57;;;1.53;;
10491;SDS011;5293;51.464;-2.566;2023-01-15T01:00:55;6.73;;;1.90;;
10491;SDS011;5293;51.464;-2.566;2023-01-15T01:03:22;6.97;;;1.40;;
10491;SDS011;5293;51.464;-2.566;2023-01-15T01:05:48;5.13;;;1.50;;
10491;SDS011;5293;51.464;-2.566;2023-01-15T01:08:14;6.40;;;1.13;;
10491;SDS011;5293;51.464;-2.566;2023-01-15T01:10:41;13.77;;;3.83;;
10491;SDS011;5293;51.464;-2.566;2023-01-15T01:13:06;9.17;;;1.73;;
10491;SDS011;5293;51.464;-2.566;2023-01-15T01:15:33;6.10;;;1.27;;
10491;SDS011;5293;51.464;-2.566;2023-01-15T01:17:59;6.30;;;1.77;;
10491;SDS011;5293;51.464;-2.566;2023-01-15T01:20:25;5.33;;;1.87;;
10491;SDS011;5293;51.464;-2.566;2023-01-15T01:22:51;7.53;;;1.73;;
10491;SDS011;5293;51.464;-2.566;2023-01-15T01:25:17;5.43;;;1.17;;
10491;SDS011;5293;51.464;-2.566;2023-01-15T01:27:43;6.73;;;1.80;;
10491;SDS011;5293;51.464;-2.566;2023-01-15T01:30:09;7.83;;;1.70;;
10491;SDS011;5293;51.464;-2.566;2023-01-15T01:32:35;8.73;;;1.93;;
10491;SDS011;5293;51.464;-2.566;2023-01-15T01:35:01;3.90;;;1.40;;
10491;SDS011;5293;51.464;-2.566;2023-01-15T01:37:27;8.30;;;1.70;;
10491;SDS011;5293;51.464;-2.566;2023-01-15T01:39:52;8.77;;;1.70;;
10491;SDS011;5293;51.464;-2.566;2023-01-15T01:42:19;7.30;;;1.53;;
10491;SDS011;5293;51.464;-2.566;2023-01-15T01:47:15;7.33;;;1.77;;
10491;SDS011;5293;51.464;-2.566;2023-01-15T01:49:51;13.07;;;2.07;;
10491;SDS011;5293;51.464;-2.566;2023-01-15T01:52:22;14.63;;;2.13;;
10491;SDS011;5293;51.464;-2.566;2023-01-15T01:54:51;9.20;;;1.67;;
10491;SDS011;5293;51.464;-2.566;2023-01-15T01:57:18;6.10;;;1.90;;
10491;SDS011;5293;51.464;-2.566;2023-01-15T01:59:46;5.87;;;1.70;;
10491;SDS011;5293;51.464;-2.566;2023-01-15T02:02:13;8.43;;;2.00;;
10491;SDS011;5293;51.464;-2.566;2023-01-15T02:04:40;10.80;;;2.67;;
10491;SDS011;5293;51.464;-2.566;2023-01-15T02:07:07;5.87;;;1.73;;
10491;SDS011;5293;51.464;-2.566;2023-01-15T02:09:32;10.63;;;1.80;;
10491;SDS011;5293;51.464;-2.566;2023-01-15T02:12:05;8.30;;;2.37;;
10491;SDS011;5293;51.464;-2.566;2023-01-15T02:14:48;7.90;;;1.67;;
10491;SDS011;5293;51.464;-2.566;2023-01-15T02:17:24;9.57;;;1.97;;
10491;SDS011;5293;51.464;-2.566;2023-01-15T02:28:44;8.13;;;1.73;;
10491;SDS011;5293;51.464;-2.566;2023-01-15T02:31:17;14.60;;;2.10;;
10491;SDS011;5293;51.464;-2.566;2023-01-15T02:33:58;7.33;;;1.70;;
10491;SDS011;5293;51.464;-2.566;2023-01-15T02:36:29;11.83;;;2.60;;
10491;SDS011;5293;51.464;-2.566;2023-01-15T02:38:58;12.23;;;2.00;;
10491;SDS011;5293;51.464;-2.566;2023-01-15T02:41:33;9.00;;;1.90;;
10491;SDS011;5293;51.464;-2.566;2023-01-15T02:44:11;5.00;;;1.07;;
10491;SDS011;5293;51.464;-2.566;2023-01-15T02:46:41;3.57;;;1.27;;
10491;SDS011;5293;51.464;-2.566;2023-01-15T02:49:08;3.30;;;1.20;;
10491;SDS011;5293;51.464;-2.566;2023-01-15T02:51:49;6.13;;;1.83;;
10491;SDS011;5293;51.464;-2.566;2023-01-15T02:54:24;3.63;;;1.13;;
10491;SDS011;5293;51.464;-2.566;2023-01-15T02:56:55;7.27;;;1.30;;
10491;SDS011;5293;51.464;-2.566;2023-01-15T02:59:26;8.40;;;1.80;;
10491;SDS011;5293;51.464;-2.566;2023-01-15T03:02:07;6.20;;;2.23;;
10491;SDS011;5293;51.464;-2.566;2023-01-15T03:04:42;8.93;;;2.53;;
10491;SDS011;5293;51.464;-2.566;2023-01-15T03:07:21;11.10;;;2.13;;
10491;SDS011;5293;51.464;-2.566;2023-01-15T03:09:54;6.60;;;2.33;;
10491;SDS011;5293;51.464;-2.566;2023-01-15T03:15:25;10.43;;;1.80;;
10491;SDS011;5293;51.464;-2.566;2023-01-15T03:18:23;7.87;;;2.00;;
10491;SDS011;5293;51.464;-2.566;2023-01-15T03:20:56;9.20;;;1.73;;
10491;SDS011;5293;51.464;-2.566;2023-01-15T03:23:24;12.70;;;2.57;;
10491;SDS011;5293;51.464;-2.566;2023-01-15T03:25:51;6.47;;;1.80;;
10491;SDS011;5293;51.464;-2.566;2023-01-15T03:28:19;12.37;;;2.10;;
10491;SDS011;5293;51.464;-2.566;2023-01-15T03:30:51;4.10;;;1.53;;
10491;SDS011;5293;51.464;-2.566;2023-01-15T03:33:17;4.93;;;1.90;;
10491;SDS011;5293;51.464;-2.566;2023-01-15T03:35:48;7.50;;;2.27;;
10491;SDS011;5293;51.464;-2.566;2023-01-15T03:38:18;5.33;;;1.23;;
10491;SDS011;5293;51.464;-2.566;2023-01-15T03:40:54;9.57;;;1.60;;
10491;SDS011;5293;51.464;-2.566;2023-01-15T03:44:05;7.20;;;1.83;;
10491;SDS011;5293;51.464;-2.566;2023-01-15T03:49:34;6.47;;;1.77;;
10491;SDS011;5293;51.464;-2.566;2023-01-15T03:54:46;7.93;;;1.40;;
10491;SDS011;5293;51.464;-2.566;2023-01-15T03:57:36;2.67;;;1.23;;
10491;SDS011;5293;51.464;-2.566;2023-01-15T04:00:18;6.57;;;1.93;;
10491;SDS011;5293;51.464;-2.566;2023-01-15T04:02:49;5.70;;;1.17;;
10491;SDS011;5293;51.464;-2.566;2023-01-15T04:05:17;6.17;;;1.50;;
10491;SDS011;5293;51.464;-2.566;2023-01-15T04:07:44;3.23;;;1.00;;
10491;SDS011;5293;51.464;-2.566;2023-01-15T04:10:11;5.80;;;1.60;;
10491;SDS011;5293;51.464;-2.566;2023-01-15T04:12:37;9.00;;;1.97;;
10491;SDS011;5293;51.464;-2.566;2023-01-15T04:15:02;4.50;;;1.30;;
10491;SDS011;5293;51.464;-2.566;2023-01-15T04:17:28;6.80;;;1.50;;
10491;SDS011;5293;51.464;-2.566;2023-01-15T04:19:54;6.87;;;1.53;;
10491;SDS011;5293;51.464;-2.566;2023-01-15T04:22:20;4.90;;;1.30;;
10491;SDS011;5293;51.464;-2.566;2023-01-15T04:24:45;6.13;;;1.30;;
10491;SDS011;5293;51.464;-2.566;2023-01-15T04:27:11;9.93;;;1.60;;
10491;SDS011;5293;51.464;-2.566;2023-01-15T04:29:37;7.30;;;1.33;;
10491;SDS011;5293;51.464;-2.566;2023-01-15T04:32:02;6.43;;;1.40;;
10491;SDS011;5293;51.464;-2.566;2023-01-15T04:34:28;5.83;;;1.50;;
10491;SDS011;5293;51.464;-2.566;2023-01-15T04:36:55;7.30;;;1.60;;
10491;SDS011;5293;51.464;-2.566;2023-01-15T04:39:21;3.70;;;1.37;;
10491;SDS011;5293;51.464;-2.566;2023-01-15T04:41:47;2.17;;;1.27;;
10491;SDS011;5293;51.464;-2.566;2023-01-15T04:44:31;4.97;;;1.60;;
10491;SDS011;5293;51.464;-2.566;2023-01-15T04:46:58;6.80;;;1.53;;
10491;SDS011;5293;51.464;-2.566;2023-01-15T04:49:24;5.70;;;1.50;;
10491;SDS011;5293;51.464;-2.566;2023-01-15T04:51:50;5.17;;;1.40;;
10491;SDS011;5293;51.464;-2.566;2023-01-15T04:54:16;8.30;;;1.70;;
10491;SDS011;5293;51.464;-2.566;2023-01-15T04:56:43;8.67;;;2.03;;
10491;SDS011;5293;51.464;-2.566;2023-01-15T04:59:14;3.10;;;1.20;;
10491;SDS011;5293;51.464;-2.566;2023-01-15T05:01:41;5.73;;;1.40;;
10491;SDS011;5293;51.464;-2.566;2023-01-15T05:04:06;6.87;;;1.40;;
10491;SDS011;5293;51.464;-2.566;2023-01-15T05:06:32;6.40;;;1.30;;
10491;SDS011;5293;51.464;-2.566;2023-01-15T05:08:59;4.23;;;1.17;;
10491;SDS011;5293;51.464;-2.566;2023-01-15T05:11:28;4.47;;;1.73;;
10491;SDS011;5293;51.464;-2.566;2023-01-15T05:13:54;5.83;;;1.50;;
10491;SDS011;5293;51.464;-2.566;2023-01-15T05:16:23;8.77;;;1.83;;
10491;SDS011;5293;51.464;-2.566;2023-01-15T05:18:51;8.03;;;2.50;;
10491;SDS011;5293;51.464;-2.566;2023-01-15T05:21:22;8.03;;;1.57;;
10491;SDS011;5293;51.464;-2.566;2023-01-15T05:23:50;4.23;;;1.20;;
10491;SDS011;5293;51.464;-2.566;2023-01-15T05:26:17;6.13;;;1.60;;
10491;SDS011;5293;51.464;-2.566;2023-01-15T05:28:45;4.13;;;1.60;;
10491;SDS011;5293;51.464;-2.566;2023-01-15T05:31:12;4.63;;;1.10;;
10491;SDS011;5293;51.464;-2.566;2023-01-15T05:33:39;4.23;;;1.00;;
10491;SDS011;5293;51.464;-2.566;2023-01-15T05:36:09;4.00;;;1.00;;
10491;SDS011;5293;51.464;-2.566;2023-01-15T05:38:37;12.03;;;2.60;;
10491;SDS011;5293;51.464;-2.566;2023-01-15T05:41:04;6.53;;;1.00;;
10491;SDS011;5293;51.464;-2.566;2023-01-15T05:43:49;4.73;;;1.40;;
10491;SDS011;5293;51.464;-2.566;2023-01-15T05:46:16;6.33;;;1.20;;
10491;SDS011;5293;51.464;-2.566;2023-01-15T05:48:42;9.83;;;1.90;;
10491;SDS011;5293;51.464;-2.566;2023-01-15T05:51:08;6.00;;;1.27;;
10491;SDS011;5293;51.464;-2.566;2023-01-15T05:53:33;3.77;;;0.97;;
10491;SDS011;5293;51.464;-2.566;2023-01-15T05:56:00;3.97;;;1.10;;
10491;SDS011;5293;51.464;-2.566;2023-01-15T05:58:26;5.57;;;1.43;;
10491;SDS011;5293;51.464;-2.566;2023-01-15T06:00:51;2.70;;;1.30;;
10491;SDS011;5293;51.464;-2.566;2023-01-15T06:03:20;8.00;;;1.47;;
10491;SDS011;5293;51.464;-2.566;2023-01-15T06:05:49;7.43;;;1.60;;
10491;SDS011;5293;51.464;-2.566;2023-01-15T06:08:18;7.37;;;1.20;;
10491;SDS011;5293;51.464;-2.566;2023-01-15T06:10:44;8.33;;;1.83;;
10491;SDS011;5293;51.464;-2.566;2023-01-15T06:13:10;5.97;;;1.77;;
10491;SDS011;5293;51.464;-2.566;2023-01-15T06:15:36;12.87;;;1.57;;
10491;SDS011;5293;51.464;-2.566;2023-01-15T06:18:02;5.97;;;1.30;;
10491;SDS011;5293;51.464;-2.566;2023-01-15T06:20:28;6.50;;;1.23;;
10491;SDS011;5293;51.464;-2.566;2023-01-15T06:22:54;4.30;;;1.40;;
10491;SDS011;5293;51.464;-2.566;2023-01-15T06:25:19;8.63;;;1.90;;
10491;SDS011;5293;51.464;-2.566;2023-01-15T06:27:45;3.37;;;1.33;;
10491;SDS011;5293;51.464;-2.566;2023-01-15T06:30:13;6.83;;;1.53;;
10491;SDS011;5293;51.464;-2.566;2023-01-15T06:32:39;4.50;;;1.27;;
10491;SDS011;5293;51.464;-2.566;2023-01-15T06:35:05;7.83;;;1.70;;
10491;SDS011;5293;51.464;-2.566;2023-01-15T06:37:31;9.57;;;1.90;;
10491;SDS011;5293;51.464;-2.566;2023-01-15T06:39:57;15.87;;;1.97;;
10491;SDS011;5293;51.464;-2.566;2023-01-15T06:42:22;12.97;;;1.97;;
10491;SDS011;5293;51.464;-2.566;2023-01-15T06:45:08;13.20;;;1.70;;
10491;SDS011;5293;51.464;-2.566;2023-01-15T06:47:53;8.53;;;1.70;;
10491;SDS011;5293;51.464;-2.566;2023-01-15T06:50:19;11.63;;;2.17;;
10491;SDS011;5293;51.464;-2.566;2023-01-15T06:52:52;8.70;;;2.57;;
10491;SDS011;5293;51.464;-2.566;2023-01-15T06:55:17;10.23;;;2.37;;
10491;SDS011;5293;51.464;-2.566;2023-01-15T06:57:43;10.17;;;2.13;;
10491;SDS011;5293;51.464;-2.566;2023-01-15T07:00:10;8.60;;;2.23;;
10491;SDS011;5293;51.464;-2.566;2023-01-15T07:02:37;8.63;;;1.80;;
10491;SDS011;5293;51.464;-2.566;2023-01-15T07:05:05;7.97;;;1.83;;
10491;SDS011;5293;51.464;-2.566;2023-01-15T07:07:31;11.93;;;2.53;;
10491;SDS011;5293;51.464;-2.566;2023-01-15T07:09:57;13.07;;;3.10;;
10491;SDS011;5293;51.464;-2.566;2023-01-15T07:12:23;15.53;;;1.90;;
10491;SDS011;5293;51.464;-2.566;2023-01-15T07:14:49;14.10;;;3.10;;
10491;SDS011;5293;51.464;-2.566;2023-01-15T07:17:15;9.97;;;1.93;;
10491;SDS011;5293;51.464;-2.566;2023-01-15T07:19:41;8.93;;;2.93;;
10491;SDS011;5293;51.464;-2.566;2023-01-15T07:22:08;9.10;;;2.13;;
10491;SDS011;5293;51.464;-2.566;2023-01-15T07:24:34;10.13;;;2.90;;
10491;SDS011;5293;51.464;-2.566;2023-01-15T07:27:00;8.90;;;1.97;;
10491;SDS011;5293;51.464;-2.566;2023-01-15T07:29:26;6.97;;;1.33;;
10491;SDS011;5293;51.464;-2.566;2023-01-15T07:31:52;9.37;;;1.70;;
10491;SDS011;5293;51.464;-2.566;2023-01-15T07:34:19;4.77;;;1.63;;
10491;SDS011;5293;51.464;-2.566;2023-01-15T07:36:45;4.20;;;1.47;;
10491;SDS011;5293;51.464;-2.566;2023-01-15T07:39:11;7.17;;;1.80;;
10491;SDS011;5293;51.464;-2.566;2023-01-15T07:41:37;6.83;;;1.40;;
10491;SDS011;5293;51.464;-2.566;2023-01-15T07:44:22;6.10;;;2.10;;
10491;SDS011;5293;51.464;-2.566;2023-01-15T07:47:19;8.00;;;1.83;;
10491;SDS011;5293;51.464;-2.566;2023-01-15T07:50:06;6.97;;;2.20;;
10491;SDS011;5293;51.464;-2.566;2023-01-15T07:52:36;11.70;;;2.03;;
10491;SDS011;5293;51.464;-2.566;2023-01-15T07:55:02;12.67;;;2.60;;
10491;SDS011;5293;51.464;-2.566;2023-01-15T07:57:29;7.30;;;1.90;;
10491;SDS011;5293;51.464;-2.566;2023-01-15T07:59:57;12.40;;;2.33;;
10491;SDS011;5293;51.464;-2.566;2023-01-15T08:02:23;7.60;;;2.20;;
10491;SDS011;5293;51.464;-2.566;2023-01-15T08:04:48;7.43;;;1.77;;
10491;SDS011;5293;51.464;-2.566;2023-01-15T08:07:14;6.83;;;1.97;;
10491;SDS011;5293;51.464;-2.566;2023-01-15T08:09:40;13.10;;;2.00;;
10491;SDS011;5293;51.464;-2.566;2023-01-15T08:12:05;8.60;;;2.20;;
10491;SDS011;5293;51.464;-2.566;2023-01-15T08:14:50;10.53;;;2.37;;
10491;SDS011;5293;51.464;-2.566;2023-01-15T08:17:34;10.53;;;2.50;;
10491;SDS011;5293;51.464;-2.566;2023-01-15T08:20:01;7.87;;;2.00;;
10491;SDS011;5293;51.464;-2.566;2023-01-15T08:22:32;6.13;;;2.10;;
10491;SDS011;5293;51.464;-2.566;2023-01-15T08:24:58;18.00;;;3.13;;
10491;SDS011;5293;51.464;-2.566;2023-01-15T08:27:24;12.30;;;2.13;;
10491;SDS011;5293;51.464;-2.566;2023-01-15T08:29:50;14.23;;;3.37;;
10491;SDS011;5293;51.464;-2.566;2023-01-15T08:32:16;12.23;;;2.60;;
10491;SDS011;5293;51.464;-2.566;2023-01-15T08:34:42;8.87;;;2.43;;
10491;SDS011;5293;51.464;-2.566;2023-01-15T08:37:08;13.23;;;2.40;;
10491;SDS011;5293;51.464;-2.566;2023-01-15T08:39:33;11.40;;;2.80;;
10491;SDS011;5293;51.464;-2.566;2023-01-15T08:41:59;12.10;;;3.00;;
10491;SDS011;5293;51.464;-2.566;2023-01-15T08:44:25;16.17;;;3.13;;
10491;SDS011;5293;51.464;-2.566;2023-01-15T08:46:51;19.00;;;3.23;;
10491;SDS011;5293;51.464;-2.566;2023-01-15T08:49:18;18.00;;;3.77;;
10491;SDS011;5293;51.464;-2.566;2023-01-15T08:51:45;20.57;;;3.40;;
10491;SDS011;5293;51.464;-2.566;2023-01-15T08:54:13;7.60;;;1.90;;
10491;SDS011;5293;51.464;-2.566;2023-01-15T08:56:40;11.20;;;3.27;;
10491;SDS011;5293;51.464;-2.566;2023-01-15T08:59:05;11.97;;;2.90;;
10491;SDS011;5293;51.464;-2.566;2023-01-15T09:01:32;9.90;;;2.33;;
10491;SDS011;5293;51.464;-2.566;2023-01-15T09:03:58;9.27;;;2.30;;
10491;SDS011;5293;51.464;-2.566;2023-01-15T09:06:24;7.27;;;1.93;;
10491;SDS011;5293;51.464;-2.566;2023-01-15T09:08:50;8.73;;;1.73;;
10491;SDS011;5293;51.464;-2.566;2023-01-15T09:11:16;6.50;;;2.00;;
10491;SDS011;5293;51.464;-2.566;2023-01-15T09:13:42;5.83;;;1.63;;
10491;SDS011;5293;51.464;-2.566;2023-01-15T09:16:08;9.23;;;1.97;;
10491;SDS011;5293;51.464;-2.566;2023-01-15T09:18:35;6.17;;;1.80;;
10491;SDS011;5293;51.464;-2.566;2023-01-15T09:21:01;7.10;;;1.83;;
10491;SDS011;5293;51.464;-2.566;2023-01-15T09:23:28;14.50;;;2.60;;
10491;SDS011;5293;51.464;-2.566;2023-01-15T09:25:57;7.10;;;1.80;;
10491;SDS011;5293;51.464;-2.566;2023-01-15T09:28:24;7.43;;;2.10;;
10491;SDS011;5293;51.464;-2.566;2023-01-15T09:30:51;10.13;;;2.00;;
10491;SDS011;5293;51.464;-2.566;2023-01-15T09:33:16;7.80;;;1.70;;
10491;SDS011;5293;51.464;-2.566;2023-01-15T09:35:42;13.63;;;2.87;;
10491;SDS011;5293;51.464;-2.566;2023-01-15T09:38:10;10.60;;;2.33;;
10491;SDS011;5293;51.464;-2.566;2023-01-15T09:51:31;14.40;;;2.23;;
10491;SDS011;5293;51.464;-2.566;2023-01-15T09:56:29;11.57;;;2.17;;
10491;SDS011;5293;51.464;-2.566;2023-01-15T09:58:57;20.57;;;2.83;;
10491;SDS011;5293;51.464;-2.566;2023-01-15T10:01:28;4.07;;;1.73;;
10491;SDS011;5293;51.464;-2.566;2023-01-15T10:03:59;11.73;;;2.07;;
10491;SDS011;5293;51.464;-2.566;2023-01-15T10:06:32;13.43;;;2.73;;
10491;SDS011;5293;51.464;-2.566;2023-01-15T10:09:19;7.83;;;1.90;;
10491;SDS011;5293;51.464;-2.566;2023-01-15T10:11:54;8.33;;;1.97;;
10491;SDS011;5293;51.464;-2.566;2023-01-15T10:17:40;8.23;;;1.90;;
10491;SDS011;5293;51.464;-2.566;2023-01-15T10:26:10;6.13;;;1.47;;
10491;SDS011;5293;51.464;-2.566;2023-01-15T10:31:20;12.23;;;1.60;;
10491;SDS011;5293;51.464;-2.566;2023-01-15T10:36:41;18.33;;;2.07;;
10491;SDS011;5293;51.464;-2.566;2023-01-15T10:45:01;5.97;;;1.67;;
10491;SDS011;5293;51.464;-2.566;2023-01-15T10:47:41;6.17;;;2.60;;
10491;SDS011;5293;51.464;-2.566;2023-01-15T10:50:17;12.27;;;2.00;;
10491;SDS011;5293;51.464;-2.566;2023-01-15T10:52:49;7.23;;;1.60;;
10491;SDS011;5293;51.464;-2.566;2023-01-15T10:55:39;3.87;;;0.97;;
10491;SDS011;5293;51.464;-2.566;2023-01-15T11:00:58;7.23;;;1.50;;
10491;SDS011;5293;51.464;-2.566;2023-01-15T11:03:31;6.13;;;1.63;;
10491;SDS011;5293;51.464;-2.566;2023-01-15T11:06:10;7.13;;;1.63;;
10491;SDS011;5293;51.464;-2.566;2023-01-15T11:08:41;2.43;;;1.20;;
10491;SDS011;5293;51.464;-2.566;2023-01-15T11:11:19;5.00;;;2.00;;
10491;SDS011;5293;51.464;-2.566;2023-01-15T11:14:17;3.47;;;1.50;;
10491;SDS011;5293;51.464;-2.566;2023-01-15T11:17:01;5.50;;;1.83;;
10491;SDS011;5293;51.464;-2.566;2023-01-15T11:19:33;7.03;;;1.57;;
10491;SDS011;5293;51.464;-2.566;2023-01-15T11:22:09;4.53;;;1.90;;
10491;SDS011;5293;51.464;-2.566;2023-01-15T11:27:16;9.57;;;1.90;;
10491;SDS011;5293;51.464;-2.566;2023-01-15T11:29:49;7.90;;;2.00;;
10491;SDS011;5293;51.464;-2.566;2023-01-15T11:32:30;4.60;;;1.93;;
10491;SDS011;5293;51.464;-2.566;2023-01-15T11:35:02;9.60;;;2.30;;
10491;SDS011;5293;51.464;-2.566;2023-01-15T11:37:41;14.00;;;2.67;;
10491;SDS011;5293;51.464;-2.566;2023-01-15T11:40:16;8.90;;;2.30;;
10491;SDS011;5293;51.464;-2.566;2023-01-15T11:42:49;7.83;;;2.23;;
10491;SDS011;5293;51.464;-2.566;2023-01-15T11:45:34;12.63;;;2.53;;
10491;SDS011;5293;51.464;-2.566;2023-01-15T11:48:42;4.07;;;1.70;;
10491;SDS011;5293;51.464;-2.566;2023-01-15T11:51:28;4.90;;;1.70;;
10491;SDS011;5293;51.464;-2.566;2023-01-15T11:54:02;5.23;;;2.03;;
10491;SDS011;5293;51.464;-2.566;2023-01-15T11:56:30;9.83;;;2.13;;
10491;SDS011;5293;51.464;-2.566;2023-01-15T11:59:00;9.87;;;3.10;;
10491;SDS011;5293;51.464;-2.566;2023-01-15T12:01:32;8.00;;;2.30;;
10491;SDS011;5293;51.464;-2.566;2023-01-15T12:04:02;8.10;;;2.07;;
10491;SDS011;5293;51.464;-2.566;2023-01-15T12:06:46;8.43;;;3.13;;
10491;SDS011;5293;51.464;-2.566;2023-01-15T12:14:28;7.70;;;2.07;;
10491;SDS011;5293;51.464;-2.566;2023-01-15T12:19:40;6.53;;;1.83;;
10491;SDS011;5293;51.464;-2.566;2023-01-15T12:35:58;4.30;;;1.40;;
10491;SDS011;5293;51.464;-2.566;2023-01-15T12:38:39;5.50;;;1.53;;
10491;SDS011;5293;51.464;-2.566;2023-01-15T12:41:15;4.13;;;1.10;;
10491;SDS011;5293;51.464;-2.566;2023-01-15T12:44:15;3.63;;;1.53;;
10491;SDS011;5293;51.464;-2.566;2023-01-15T12:47:24;3.43;;;1.43;;
10491;SDS011;5293;51.464;-2.566;2023-01-15T12:49:57;6.73;;;1.93;;
10491;SDS011;5293;51.464;-2.566;2023-01-15T12:52:37;4.60;;;1.60;;
10491;SDS011;5293;51.464;-2.566;2023-01-15T12:55:08;5.37;;;1.90;;
10491;SDS011;5293;51.464;-2.566;2023-01-15T12:57:44;2.80;;;1.50;;
10491;SDS011;5293;51.464;-2.566;2023-01-15T13:00:14;7.40;;;1.70;;
10491;SDS011;5293;51.464;-2.566;2023-01-15T13:05:32;9.40;;;2.00;;
10491;SDS011;5293;51.464;-2.566;2023-01-15T13:08:14;9.33;;;1.60;;
10491;SDS011;5293;51.464;-2.566;2023-01-15T13:10:49;5.37;;;1.63;;
10491;SDS011;5293;51.464;-2.566;2023-01-15T13:13:20;4.97;;;1.90;;
10491;SDS011;5293;51.464;-2.566;2023-01-15T13:21:14;8.37;;;2.10;;
10491;SDS011;5293;51.464;-2.566;2023-01-15T13:37:32;5.50;;;2.40;;
10491;SDS011;5293;51.464;-2.566;2023-01-15T13:40:05;8.20;;;2.20;;
10491;SDS011;5293;51.464;-2.566;2023-01-15T13:42:43;7.37;;;3.20;;
10491;SDS011;5293;51.464;-2.566;2023-01-15T13:48:06;11.67;;;3.20;;
10491;SDS011;5293;51.464;-2.566;2023-01-15T13:50:52;10.37;;;2.90;;
10491;SDS011;5293;51.464;-2.566;2023-01-15T13:55:57;13.27;;;3.47;;
10491;SDS011;5293;51.464;-2.566;2023-01-15T13:58:31;9.07;;;2.50;;
10491;SDS011;5293;51.464;-2.566;2023-01-15T14:03:30;12.63;;;4.37;;
10491;SDS011;5293;51.464;-2.566;2023-01-15T14:05:59;8.30;;;4.70;;
10491;SDS011;5293;51.464;-2.566;2023-01-15T14:08:27;11.63;;;2.63;;
10491;SDS011;5293;51.464;-2.566;2023-01-15T14:11:04;7.10;;;2.70;;
10491;SDS011;5293;51.464;-2.566;2023-01-15T14:13:53;9.07;;;2.77;;
10491;SDS011;5293;51.464;-2.566;2023-01-15T14:27:37;5.87;;;2.43;;
10491;SDS011;5293;51.464;-2.566;2023-01-15T14:35:33;13.17;;;2.90;;
10491;SDS011;5293;51.464;-2.566;2023-01-15T14:38:11;15.23;;;2.63;;
10491;SDS011;5293;51.464;-2.566;2023-01-15T14:40:54;13.17;;;3.80;;
10491;SDS011;5293;51.464;-2.566;2023-01-15T14:43:23;9.30;;;2.63;;
10491;SDS011;5293;51.464;-2.566;2023-01-15T14:45:53;14.63;;;2.67;;
10491;SDS011;5293;51.464;-2.566;2023-01-15T14:48:31;14.70;;;2.70;;
10491;SDS011;5293;51.464;-2.566;2023-01-15T14:52:01;11.97;;;2.50;;
10491;SDS011;5293;51.464;-2.566;2023-01-15T14:54:16;6.63;;;2.73;;
10491;SDS011;5293;51.464;-2.566;2023-01-15T14:56:44;14.17;;;2.57;;
10491;SDS011;5293;51.464;-2.566;2023-01-15T15:02:01;4.50;;;1.87;;
10491;SDS011;5293;51.464;-2.566;2023-01-15T15:04:47;7.93;;;2.07;;
10491;SDS011;5293;51.464;-2.566;2023-01-15T15:07:21;10.93;;;3.73;;
10491;SDS011;5293;51.464;-2.566;2023-01-15T15:12:41;14.60;;;2.20;;
10491;SDS011;5293;51.464;-2.566;2023-01-15T15:18:01;7.20;;;2.17;;
10491;SDS011;5293;51.464;-2.566;2023-01-15T15:26:02;11.53;;;2.67;;
10491;SDS011;5293;51.464;-2.566;2023-01-15T15:28:29;10.17;;;3.03;;
10491;SDS011;5293;51.464;-2.566;2023-01-15T15:30:55;12.20;;;4.37;;
10491;SDS011;5293;51.464;-2.566;2023-01-15T15:33:27;15.60;;;6.53;;
10491;SDS011;5293;51.464;-2.566;2023-01-15T15:36:04;9.50;;;3.50;;
10491;SDS011;5293;51.464;-2.566;2023-01-15T15:38:32;8.07;;;1.87;;
10491;SDS011;5293;51.464;-2.566;2023-01-15T15:40:59;5.13;;;1.90;;
10491;SDS011;5293;51.464;-2.566;2023-01-15T15:47:19;10.10;;;2.23;;
10491;SDS011;5293;51.464;-2.566;2023-01-15T15:50:04;3.30;;;1.60;;
10491;SDS011;5293;51.464;-2.566;2023-01-15T15:52:32;7.57;;;1.90;;
10491;SDS011;5293;51.464;-2.566;2023-01-15T15:54:59;8.70;;;2.27;;
10491;SDS011;5293;51.464;-2.566;2023-01-15T15:57:30;6.00;;;1.60;;
10491;SDS011;5293;51.464;-2.566;2023-01-15T15:59:58;11.77;;;2.10;;
10491;SDS011;5293;51.464;-2.566;2023-01-15T16:02:37;9.63;;;2.97;;
10491;SDS011;5293;51.464;-2.566;2023-01-15T16:07:43;10.43;;;2.27;;
10491;SDS011;5293;51.464;-2.566;2023-01-15T16:10:19;3.13;;;1.70;;
10491;SDS011;5293;51.464;-2.566;2023-01-15T16:12:51;10.93;;;2.00;;
10491;SDS011;5293;51.464;-2.566;2023-01-15T16:18:19;12.73;;;2.20;;
10491;SDS011;5293;51.464;-2.566;2023-01-15T16:20:49;9.77;;;1.90;;
10491;SDS011;5293;51.464;-2.566;2023-01-15T16:23:19;5.07;;;2.07;;
10491;SDS011;5293;51.464;-2.566;2023-01-15T16:28:37;6.70;;;2.43;;
10491;SDS011;5293;51.464;-2.566;2023-01-15T16:31:08;7.83;;;3.00;;
10491;SDS011;5293;51.464;-2.566;2023-01-15T16:33:35;13.23;;;2.87;;
10491;SDS011;5293;51.464;-2.566;2023-01-15T16:36:02;8.33;;;2.73;;
10491;SDS011;5293;51.464;-2.566;2023-01-15T16:38:34;10.27;;;2.67;;
10491;SDS011;5293;51.464;-2.566;2023-01-15T16:41:03;10.23;;;2.50;;
10491;SDS011;5293;51.464;-2.566;2023-01-15T16:43:29;11.60;;;2.77;;
10491;SDS011;5293;51.464;-2.566;2023-01-15T16:48:28;16.97;;;3.10;;
10491;SDS011;5293;51.464;-2.566;2023-01-15T16:51:21;19.97;;;3.30;;
10491;SDS011;5293;51.464;-2.566;2023-01-15T16:53:55;12.20;;;2.77;;
10491;SDS011;5293;51.464;-2.566;2023-01-15T16:59:01;11.87;;;3.33;;
10491;SDS011;5293;51.464;-2.566;2023-01-15T17:01:38;21.53;;;4.23;;
10491;SDS011;5293;51.464;-2.566;2023-01-15T17:04:35;17.80;;;3.63;;
10491;SDS011;5293;51.464;-2.566;2023-01-15T17:07:05;18.40;;;3.50;;
10491;SDS011;5293;51.464;-2.566;2023-01-15T17:09:42;20.03;;;3.73;;
10491;SDS011;5293;51.464;-2.566;2023-01-15T17:14:52;21.13;;;7.07;;
10491;SDS011;5293;51.464;-2.566;2023-01-15T17:19:50;20.13;;;4.03;;
10491;SDS011;5293;51.464;-2.566;2023-01-15T17:22:20;18.23;;;3.60;;
10491;SDS011;5293;51.464;-2.566;2023-01-15T17:24:53;17.63;;;4.83;;
10491;SDS011;5293;51.464;-2.566;2023-01-15T17:27:21;19.43;;;5.27;;
10491;SDS011;5293;51.464;-2.566;2023-01-15T17:29:47;22.50;;;5.23;;
10491;SDS011;5293;51.464;-2.566;2023-01-15T17:32:13;19.57;;;5.03;;
10491;SDS011;5293;51.464;-2.566;2023-01-15T17:35:00;15.87;;;4.60;;
10491;SDS011;5293;51.464;-2.566;2023-01-15T17:37:25;18.27;;;4.10;;
10491;SDS011;5293;51.464;-2.566;2023-01-15T17:39:51;25.57;;;5.93;;
10491;SDS011;5293;51.464;-2.566;2023-01-15T17:42:18;22.00;;;6.80;;
10491;SDS011;5293;51.464;-2.566;2023-01-15T17:44:44;17.53;;;5.47;;
10491;SDS011;5293;51.464;-2.566;2023-01-15T17:47:10;14.33;;;4.10;;
10491;SDS011;5293;51.464;-2.566;2023-01-15T17:49:36;17.00;;;4.63;;